Sunday, December 17, 2017, 4:14 PM EST
Back to Local

KUCP, New Castle, New Castle Municipal Airport

Location: Edinburg, PA, United States Lat: 41.025
Local Time: 4:14 PM EST (21:14 GMT) Lon: -80.413
Time Zone: US/Eastern Elev: 1072 ft

Show me the last for .
Show Coded

Time T Td Feel RH Dir Speed Gust Alt SLP Vis Weather Sky Remarks
2017-12-17 14:56 39 29 37 66 150° 3 - 30.11 30.19 10 SCT110 None
2017-12-17 13:56 39 29 36 66 170° 5 - 30.11 30.19 10 CLR None
2017-12-17 12:56 35 29 - 78 - Calm - 30.15 30.23 10 CLR 6-hr Min Temp (1pm): 19.9°F
6-hr Max Temp (1pm): 36.0°F
2017-12-17 11:56 33 30 - 88 - Calm - 30.17 30.26 7 CLR None
2017-12-17 10:56 29 28 - 96 - Calm - 30.21 30.29 5 BR CLR None
2017-12-17 09:56 26 25 - 95 - Calm - 30.21 30.30 5 BR CLR None
2017-12-17 08:56 23 22 - 95 - Calm - 30.20 30.29 4 BR CLR None
2017-12-17 07:56 21 20 - 95 - Calm - 30.19 30.28 4 BR CLR None
2017-12-17 06:56 20 18 - 91 - Calm - 30.19 30.28 4 BR CLR 24-hr Precip Total (7am): 0.03"
6-hr Min Temp (7am): 19.0°F
6-hr Max Temp (7am): 21.9°F
2017-12-17 05:56 20 18 - 91 - Calm - 30.18 30.27 4 BR CLR None
2017-12-17 04:56 20 18 - 91 - Calm - 30.17 30.25 5 BR CLR None
2017-12-17 03:56 21 19 - 91 - Calm - 30.16 30.24 5 BR CLR None
2017-12-17 02:56 22 21 - 96 - Calm - 30.16 30.24 5 BR CLR None
2017-12-17 01:56 20 18 - 91 - Calm - 30.16 30.24 4 BR CLR None
2017-12-17 00:56 21 19 - 91 - Calm - 30.15 30.23 3 BR CLR 6-hr Min Temp (1am): 21.0°F
6-hr Max Temp (1am): 32.0°F
2017-12-16 23:56 23 21 - 91 - Calm - 30.14 30.22 5 BR CLR 24-hr Min Temp (12am): 21.9°F
24-hr Max Temp (12am): 39.9°F
2017-12-16 22:56 24 22 - 91 - Calm - 30.14 30.22 8 CLR None
2017-12-16 21:56 24 22 - 91 - Calm - 30.13 30.21 9 CLR None
2017-12-16 20:56 26 24 19 92 70° 6 - 30.11 30.20 10 CLR None
2017-12-16 19:56 27 26 - 96 - Calm - 30.11 30.19 10 CLR None
2017-12-16 18:56 31 27 - 85 - Calm - 30.09 30.17 10 CLR 6-hr Min Temp (7pm): 30.9°F
6-hr Max Temp (7pm): 39.9°F
2017-12-16 17:56 33 27 30 77 220° 3 - 30.07 30.15 10 CLR None
2017-12-16 16:56 39 27 36 61 250° 5 - 30.05 30.12 10 SCT100 BKN120 None

Support USWX by starting your Amazon purchase here.